createdAt,value
2022-11-29T00:00:39.367Z,100.00
2022-11-29T00:03:05.791Z,100.00
2022-11-29T00:05:35.490Z,100.00
2022-11-29T00:08:02.028Z,100.00
2022-11-29T00:10:28.433Z,100.00
2022-11-29T00:12:54.852Z,100.00
2022-11-29T00:15:21.241Z,100.00
2022-11-29T00:17:47.651Z,100.00
2022-11-29T00:20:14.105Z,100.00
2022-11-29T00:22:40.527Z,100.00
2022-11-29T00:25:07.179Z,100.00
2022-11-29T00:27:33.694Z,100.00
2022-11-29T00:30:00.122Z,100.00
2022-11-29T00:32:26.539Z,100.00
2022-11-29T00:34:53.122Z,100.00
2022-11-29T00:37:19.494Z,100.00
2022-11-29T00:39:45.876Z,100.00
2022-11-29T00:42:12.310Z,100.00
2022-11-29T00:44:38.732Z,100.00
2022-11-29T00:47:05.136Z,100.00
2022-11-29T00:49:31.607Z,100.00
2022-11-29T00:51:58.070Z,100.00
2022-11-29T00:54:24.508Z,100.00
2022-11-29T00:56:50.939Z,100.00
2022-11-29T00:59:17.353Z,100.00
2022-11-29T01:01:43.942Z,100.00
2022-11-29T01:04:10.411Z,100.00
2022-11-29T01:06:36.899Z,100.00
2022-11-29T01:09:03.805Z,100.00
2022-11-29T01:11:30.326Z,100.00
2022-11-29T01:13:58.835Z,100.00
2022-11-29T01:16:26.122Z,100.00
2022-11-29T01:18:52.748Z,100.00
2022-11-29T01:21:21.797Z,100.00
2022-11-29T01:23:49.407Z,100.00
2022-11-29T01:26:21.283Z,100.00
2022-11-29T01:28:49.025Z,100.00
2022-11-29T01:31:17.661Z,100.00
2022-11-29T01:33:44.148Z,100.00
2022-11-29T01:36:12.798Z,100.00
2022-11-29T01:38:39.806Z,100.00
2022-11-29T01:41:15.083Z,100.00
2022-11-29T01:43:59.074Z,100.00
2022-11-29T01:46:27.167Z,100.00
2022-11-29T01:48:56.162Z,100.00
2022-11-29T01:51:22.694Z,100.00
2022-11-29T01:53:49.232Z,100.00
2022-11-29T01:56:16.198Z,100.00
2022-11-29T01:58:44.014Z,100.00
2022-11-29T02:01:11.153Z,100.00
2022-11-29T02:03:37.786Z,100.00
2022-11-29T02:06:05.146Z,100.00
2022-11-29T02:08:39.462Z,100.00
2022-11-29T02:11:43.192Z,100.00
2022-11-29T02:14:28.184Z,100.00
2022-11-29T02:16:56.655Z,100.00
2022-11-29T02:19:41.623Z,100.00
2022-11-29T02:22:13.408Z,100.00
2022-11-29T02:24:46.251Z,100.00
2022-11-29T02:27:41.006Z,100.00
2022-11-29T02:30:09.607Z,100.00
2022-11-29T02:32:42.046Z,100.00
2022-11-29T02:35:46.066Z,100.00
2022-11-29T02:38:30.558Z,100.00
2022-11-29T02:41:15.812Z,100.00
2022-11-29T02:44:40.096Z,100.00
2022-11-29T02:47:31.616Z,100.00
2022-11-29T02:50:07.184Z,100.00
2022-11-29T02:52:55.492Z,100.00
2022-11-29T02:55:38.480Z,100.00
2022-11-29T02:58:19.654Z,100.00
2022-11-29T03:01:07.994Z,100.00
2022-11-29T03:03:43.627Z,100.00
2022-11-29T03:06:34.905Z,100.00
2022-11-29T03:09:09.503Z,100.00
2022-11-29T03:12:00.381Z,100.00
2022-11-29T03:14:29.041Z,100.00
2022-11-29T03:16:55.330Z,100.00
2022-11-29T03:19:43.598Z,100.00
2022-11-29T03:22:12.937Z,100.00
2022-11-29T03:25:18.265Z,100.00
2022-11-29T03:27:54.709Z,100.00
2022-11-29T03:30:21.870Z,100.00
2022-11-29T03:32:55.474Z,100.00
2022-11-29T03:36:13.349Z,100.00
2022-11-29T03:38:45.663Z,100.00
2022-11-29T03:41:18.184Z,100.00
2022-11-29T03:44:09.678Z,100.00
2022-11-29T03:47:04.848Z,100.00
2022-11-29T03:49:54.726Z,100.00
2022-11-29T03:52:26.746Z,100.00
2022-11-29T03:55:08.378Z,100.00
2022-11-29T03:57:45.458Z,100.00
2022-11-29T04:00:13.325Z,100.00
2022-11-29T04:02:39.690Z,100.00
2022-11-29T04:05:43.976Z,100.00
2022-11-29T04:08:52.477Z,100.00
2022-11-29T04:11:55.816Z,100.00
2022-11-29T04:14:56.347Z,100.00
2022-11-29T04:17:47.787Z,100.00
2022-11-29T04:20:47.879Z,100.00
2022-11-29T04:23:46.594Z,100.00
2022-11-29T04:26:37.955Z,100.00
2022-11-29T04:29:35.580Z,100.00
2022-11-29T04:32:39.563Z,100.00
2022-11-29T04:35:31.374Z,100.00
2022-11-29T04:38:19.262Z,100.00
2022-11-29T04:41:26.011Z,100.00
2022-11-29T04:44:10.660Z,100.00
2022-11-29T04:46:42.936Z,100.00
2022-11-29T04:49:30.719Z,100.00
2022-11-29T04:52:19.502Z,100.00
2022-11-29T04:55:30.676Z,100.00
2022-11-29T04:58:11.156Z,100.00
2022-11-29T05:00:51.999Z,100.00
2022-11-29T05:03:31.464Z,100.00
2022-11-29T05:06:10.604Z,100.00
2022-11-29T05:08:55.972Z,100.00
2022-11-29T05:11:27.070Z,100.00
2022-11-29T05:14:34.309Z,100.00
2022-11-29T05:17:38.318Z,100.00
2022-11-29T05:20:18.291Z,100.00
2022-11-29T05:22:50.751Z,100.00
2022-11-29T05:25:23.286Z,100.00
2022-11-29T05:28:11.002Z,100.00
2022-11-29T05:30:46.844Z,100.00
2022-11-29T05:33:42.488Z,100.00
2022-11-29T05:36:24.960Z,100.00
2022-11-29T05:39:18.075Z,100.00
2022-11-29T05:41:50.508Z,100.00
2022-11-29T05:44:24.783Z,100.00
2022-11-29T05:46:59.555Z,100.00
2022-11-29T05:49:31.309Z,100.00
2022-11-29T05:52:20.982Z,100.00
2022-11-29T05:55:16.184Z,100.00
2022-11-29T05:57:49.917Z,100.00
2022-11-29T06:00:18.513Z,100.00
2022-11-29T06:03:07.482Z,100.00
2022-11-29T06:05:51.162Z,100.00
2022-11-29T06:08:32.817Z,100.00
2022-11-29T06:11:18.154Z,100.00
2022-11-29T06:13:55.514Z,100.00
2022-11-29T06:16:33.843Z,100.00
2022-11-29T06:19:18.596Z,100.00
2022-11-29T06:22:20.815Z,100.00
2022-11-29T06:25:13.109Z,100.00
2022-11-29T06:28:09.948Z,100.00
2022-11-29T06:31:14.673Z,100.00
2022-11-29T06:33:47.879Z,100.00
2022-11-29T06:36:28.020Z,100.00
2022-11-29T06:38:54.533Z,100.00
2022-11-29T06:41:23.210Z,100.00
2022-11-29T06:43:50.169Z,100.00
2022-11-29T06:46:29.202Z,100.00
2022-11-29T06:49:17.737Z,100.00
2022-11-29T06:51:56.371Z,100.00
2022-11-29T06:54:47.706Z,100.00
2022-11-29T06:57:48.059Z,100.00
2022-11-29T07:00:21.360Z,100.00
2022-11-29T07:03:22.972Z,100.00
2022-11-29T07:05:49.688Z,100.00
2022-11-29T07:08:18.868Z,100.00
2022-11-29T07:10:49.643Z,100.00
2022-11-29T07:13:17.897Z,100.00
2022-11-29T07:15:58.892Z,100.00
2022-11-29T07:18:38.651Z,100.00
2022-11-29T07:21:16.437Z,100.00
2022-11-29T07:23:53.666Z,100.00
2022-11-29T07:26:30.246Z,100.00
2022-11-29T07:29:05.770Z,100.00
2022-11-29T07:31:54.056Z,100.00
2022-11-29T07:34:35.489Z,100.00
2022-11-29T07:37:17.223Z,100.00
2022-11-29T07:40:05.615Z,100.00
2022-11-29T07:42:31.969Z,100.00
2022-11-29T07:45:28.761Z,100.00
2022-11-29T07:47:55.273Z,100.00
2022-11-29T07:50:21.942Z,100.00
2022-11-29T07:52:48.490Z,100.00
2022-11-29T07:55:19.145Z,100.00
2022-11-29T07:57:47.167Z,100.00
2022-11-29T08:00:14.622Z,100.00
2022-11-29T08:02:41.602Z,100.00
2022-11-29T08:05:08.792Z,100.00
2022-11-29T08:07:39.916Z,100.00
2022-11-29T08:10:11.790Z,100.00
2022-11-29T08:12:46.187Z,100.00
2022-11-29T08:15:13.333Z,100.00
2022-11-29T08:17:39.894Z,100.00
2022-11-29T08:20:07.333Z,100.00
2022-11-29T08:22:33.934Z,100.00
2022-11-29T08:25:00.337Z,100.00
2022-11-29T08:27:27.316Z,100.00
2022-11-29T08:29:53.827Z,100.00
2022-11-29T08:32:20.235Z,100.00
2022-11-29T08:34:47.006Z,100.00
2022-11-29T08:37:13.677Z,100.00
2022-11-29T08:39:40.104Z,100.00
2022-11-29T08:42:06.571Z,100.00
2022-11-29T08:44:32.986Z,100.00
2022-11-29T08:47:17.939Z,100.00
2022-11-29T08:50:02.723Z,100.00
2022-11-29T08:52:48.716Z,100.00
2022-11-29T08:55:15.929Z,100.00
2022-11-29T08:57:42.492Z,100.00
2022-11-29T09:00:10.331Z,100.00
2022-11-29T09:02:37.286Z,100.00
2022-11-29T09:05:05.309Z,100.00
2022-11-29T09:07:31.799Z,100.00
2022-11-29T09:09:58.453Z,100.00
2022-11-29T09:12:24.948Z,100.00
2022-11-29T09:14:51.329Z,100.00
2022-11-29T09:17:17.723Z,100.00
2022-11-29T09:19:44.165Z,100.00
2022-11-29T09:22:10.639Z,100.00
2022-11-29T09:24:37.086Z,100.00
2022-11-29T09:27:03.779Z,100.00
2022-11-29T09:29:30.206Z,100.00
2022-11-29T09:31:56.712Z,100.00
2022-11-29T09:34:23.217Z,100.00
2022-11-29T09:36:49.752Z,100.00
2022-11-29T09:39:16.238Z,100.00
2022-11-29T09:41:49.003Z,100.00
2022-11-29T09:44:48.119Z,100.00
2022-11-29T09:47:36.442Z,100.00
2022-11-29T09:50:30.702Z,100.00
2022-11-29T09:53:17.516Z,100.00
2022-11-29T09:55:52.787Z,100.00
2022-11-29T09:58:22.359Z,100.00
2022-11-29T10:00:52.036Z,100.00
2022-11-29T10:03:33.901Z,100.00
2022-11-29T10:06:14.180Z,100.00
2022-11-29T10:08:43.942Z,100.00
2022-11-29T10:11:17.983Z,100.00
2022-11-29T10:14:09.129Z,100.00
2022-11-29T10:16:46.726Z,100.00
2022-11-29T10:19:33.392Z,100.00
2022-11-29T10:22:05.899Z,100.00
2022-11-29T10:24:33.746Z,100.00
2022-11-29T10:27:00.275Z,100.00
2022-11-29T10:29:26.786Z,100.00
2022-11-29T10:31:56.782Z,100.00
2022-11-29T10:34:25.484Z,100.00
2022-11-29T10:36:59.867Z,100.00
2022-11-29T10:39:33.763Z,100.00
2022-11-29T10:42:01.558Z,100.00
2022-11-29T10:44:28.286Z,100.00
2022-11-29T10:46:55.999Z,100.00
2022-11-29T10:49:27.475Z,100.00
2022-11-29T10:51:53.922Z,100.00
2022-11-29T10:54:38.732Z,100.00
2022-11-29T10:57:12.755Z,100.00
2022-11-29T10:59:39.144Z,100.00
2022-11-29T11:02:17.308Z,100.00
2022-11-29T11:04:46.483Z,100.00
2022-11-29T11:07:24.055Z,100.00
2022-11-29T11:09:53.013Z,100.00
2022-11-29T11:12:21.087Z,100.00
2022-11-29T11:14:48.256Z,100.00
2022-11-29T11:17:26.331Z,100.00
2022-11-29T11:20:10.024Z,100.00
2022-11-29T11:22:39.765Z,100.00
2022-11-29T11:25:24.487Z,100.00
2022-11-29T11:27:51.124Z,100.00
2022-11-29T11:30:35.720Z,100.00
2022-11-29T11:33:14.280Z,100.00
2022-11-29T11:35:40.859Z,100.00
2022-11-29T11:38:15.622Z,100.00
2022-11-29T11:40:42.176Z,100.00
2022-11-29T11:43:18.956Z,100.00
2022-11-29T11:45:51.990Z,100.00
2022-11-29T11:48:19.144Z,100.00
2022-11-29T11:50:54.286Z,100.00
2022-11-29T11:53:24.495Z,100.00
2022-11-29T11:56:00.900Z,100.00
2022-11-29T11:58:29.682Z,100.00
2022-11-29T12:01:12.213Z,100.00
2022-11-29T12:04:06.601Z,100.00
2022-11-29T12:06:52.136Z,100.00
2022-11-29T12:09:22.893Z,100.00
2022-11-29T12:12:14.360Z,100.00
2022-11-29T12:14:43.716Z,99.83
2022-11-29T12:18:05.746Z,99.33
2022-11-29T12:20:35.037Z,98.97
2022-11-29T12:23:31.395Z,98.86
2022-11-29T12:26:55.216Z,99.08
2022-11-29T12:29:14.062Z,98.47
2022-11-29T12:31:55.962Z,96.97
2022-11-29T12:34:43.163Z,96.86
2022-11-29T12:37:40.381Z,95.81
2022-11-29T12:40:07.162Z,95.85
2022-11-29T12:42:48.473Z,95.93
2022-11-29T12:45:40.760Z,95.21
2022-11-29T12:48:33.187Z,95.53
2022-11-29T12:51:32.088Z,95.84
2022-11-29T12:54:16.279Z,96.81
2022-11-29T12:57:12.051Z,95.38
2022-11-29T12:59:50.612Z,94.41
2022-11-29T13:02:43.482Z,94.13
2022-11-29T13:05:19.005Z,94.27
2022-11-29T13:07:59.852Z,94.65
2022-11-29T13:10:50.982Z,95.30
2022-11-29T13:13:35.681Z,93.89
2022-11-29T13:16:31.129Z,94.64
2022-11-29T13:19:35.333Z,93.57
2022-11-29T13:22:15.527Z,93.29
2022-11-29T13:24:44.584Z,93.92
2022-11-29T13:27:33.704Z,93.53
2022-11-29T13:30:01.797Z,94.04
2022-11-29T13:32:36.606Z,93.79
2022-11-29T13:35:17.126Z,94.33
2022-11-29T13:37:53.552Z,93.95
2022-11-29T13:40:45.753Z,94.23
2022-11-29T13:43:36.657Z,93.82
2022-11-29T13:46:15.224Z,93.04
2022-11-29T13:48:53.258Z,94.25
2022-11-29T13:51:26.051Z,94.39
2022-11-29T13:53:53.543Z,94.40
2022-11-29T13:56:36.336Z,95.09
2022-11-29T13:59:08.440Z,95.56
2022-11-29T14:01:44.681Z,95.13
2022-11-29T14:04:33.233Z,94.97
2022-11-29T14:07:08.628Z,96.01
2022-11-29T14:09:51.257Z,96.21
2022-11-29T14:12:36.554Z,96.08
2022-11-29T14:15:15.080Z,95.92
2022-11-29T14:17:53.529Z,95.76
2022-11-29T14:20:22.885Z,96.17
2022-11-29T14:23:04.666Z,94.79
2022-11-29T14:28:23.064Z,96.71
2022-11-29T14:30:53.379Z,96.14
2022-11-29T14:33:28.875Z,96.49
2022-11-29T14:36:07.529Z,96.08
2022-11-29T14:39:01.955Z,95.74
2022-11-29T14:41:49.852Z,95.88
2022-11-29T14:44:24.221Z,95.81
2022-11-29T14:47:00.985Z,94.89
2022-11-29T14:49:28.686Z,96.05
2022-11-29T14:52:13.526Z,94.45
2022-11-29T14:54:54.646Z,95.37
2022-11-29T14:58:06.471Z,95.34
2022-11-29T15:00:32.862Z,94.95
2022-11-29T15:03:09.121Z,95.64
2022-11-29T15:06:01.450Z,95.32
2022-11-29T15:08:55.383Z,94.96
2022-11-29T15:11:36.628Z,95.16
2022-11-29T15:14:12.318Z,95.07
2022-11-29T15:17:16.306Z,95.35
2022-11-29T15:20:20.492Z,94.60
2022-11-29T15:22:59.536Z,95.20
2022-11-29T15:25:28.402Z,95.03
2022-11-29T15:27:57.234Z,94.77
2022-11-29T15:30:41.670Z,94.47
2022-11-29T15:33:19.287Z,94.65
2022-11-29T15:35:54.559Z,94.58
2022-11-29T15:38:22.305Z,94.93
2022-11-29T15:40:53.984Z,95.75
2022-11-29T15:43:22.418Z,95.08
2022-11-29T15:45:56.997Z,94.98
2022-11-29T15:48:30.339Z,94.73
2022-11-29T15:51:02.008Z,95.60
2022-11-29T15:53:39.647Z,95.59
2022-11-29T15:56:13.908Z,95.19
2022-11-29T15:58:40.509Z,95.23
2022-11-29T16:01:07.306Z,95.72
2022-11-29T16:03:35.821Z,94.29
2022-11-29T16:06:29.635Z,95.99
2022-11-29T16:08:56.038Z,95.34
2022-11-29T16:11:24.869Z,95.84
2022-11-29T16:14:22.769Z,96.01
2022-11-29T16:16:52.596Z,95.31
2022-11-29T16:19:25.005Z,96.17
2022-11-29T16:22:10.185Z,95.30
2022-11-29T16:24:38.211Z,95.90
2022-11-29T16:27:06.072Z,95.96
2022-11-29T16:29:37.483Z,95.47
2022-11-29T16:32:24.527Z,96.11
2022-11-29T16:34:51.248Z,96.67
2022-11-29T16:37:21.674Z,96.58
2022-11-29T16:39:50.662Z,95.85
2022-11-29T16:42:25.798Z,96.13
2022-11-29T16:45:01.675Z,97.08
2022-11-29T16:47:46.371Z,96.38
2022-11-29T16:50:16.259Z,96.91
2022-11-29T16:52:42.791Z,97.43
2022-11-29T16:55:09.263Z,97.21
2022-11-29T16:57:35.978Z,96.89
2022-11-29T17:00:10.172Z,97.82
2022-11-29T17:02:36.621Z,97.80
2022-11-29T17:05:03.208Z,97.43
2022-11-29T17:07:31.602Z,97.67
2022-11-29T17:09:58.554Z,98.22
2022-11-29T17:12:25.055Z,97.34
2022-11-29T17:14:51.537Z,97.84
2022-11-29T17:17:18.811Z,98.35
2022-11-29T17:19:45.363Z,97.86
2022-11-29T17:22:12.439Z,98.27
2022-11-29T17:24:43.400Z,98.55
2022-11-29T17:27:12.904Z,98.54
2022-11-29T17:29:39.298Z,99.46
2022-11-29T17:32:05.789Z,99.28
2022-11-29T17:34:33.239Z,98.95
2022-11-29T17:36:59.850Z,98.93
2022-11-29T17:39:26.259Z,98.71
2022-11-29T17:41:52.652Z,98.79
2022-11-29T17:44:19.114Z,98.72
2022-11-29T17:46:45.552Z,98.50
2022-11-29T17:49:11.970Z,98.30
2022-11-29T17:51:55.473Z,97.60
2022-11-29T17:54:22.570Z,98.23
2022-11-29T17:56:49.527Z,98.36
2022-11-29T17:59:15.924Z,97.86
2022-11-29T18:01:42.389Z,98.21
2022-11-29T18:04:08.856Z,98.33
2022-11-29T18:06:40.027Z,98.42
2022-11-29T18:09:08.395Z,98.03
2022-11-29T18:11:46.933Z,97.76
2022-11-29T18:14:15.819Z,97.75
2022-11-29T18:16:42.816Z,98.27
2022-11-29T18:19:12.233Z,99.37
2022-11-29T18:21:39.126Z,98.73
2022-11-29T18:24:06.657Z,99.20
2022-11-29T18:26:34.518Z,98.86
2022-11-29T18:29:01.355Z,99.83
2022-11-29T18:31:30.254Z,98.95
2022-11-29T18:33:58.766Z,100.00
2022-11-29T18:36:28.024Z,100.00
2022-11-29T18:39:00.626Z,100.00
2022-11-29T18:41:29.614Z,99.81
2022-11-29T18:43:58.857Z,99.13
2022-11-29T18:46:25.879Z,99.01
2022-11-29T18:48:52.914Z,99.19
2022-11-29T18:51:20.321Z,99.38
2022-11-29T18:53:46.981Z,100.00
2022-11-29T18:56:15.695Z,99.97
2022-11-29T18:58:43.203Z,99.53
2022-11-29T19:01:12.072Z,99.90
2022-11-29T19:03:40.886Z,100.00
2022-11-29T19:06:10.961Z,100.00
2022-11-29T19:08:37.751Z,99.87
2022-11-29T19:11:05.871Z,100.00
2022-11-29T19:13:32.611Z,100.00
2022-11-29T19:15:59.446Z,99.88
2022-11-29T19:18:25.997Z,100.00
2022-11-29T19:20:53.538Z,99.81
2022-11-29T19:23:21.120Z,99.75
2022-11-29T19:25:48.015Z,100.00
2022-11-29T19:28:14.640Z,100.00
2022-11-29T19:30:41.151Z,100.00
2022-11-29T19:33:07.644Z,100.00
2022-11-29T19:35:34.758Z,100.00
2022-11-29T19:38:01.114Z,100.00
2022-11-29T19:40:27.776Z,100.00
2022-11-29T19:42:54.218Z,100.00
2022-11-29T19:45:21.769Z,100.00
2022-11-29T19:47:48.197Z,100.00
2022-11-29T19:50:14.605Z,100.00
2022-11-29T19:52:40.973Z,100.00
2022-11-29T19:55:07.659Z,100.00
2022-11-29T19:57:34.034Z,100.00
2022-11-29T20:00:00.503Z,100.00
2022-11-29T20:02:27.783Z,100.00
2022-11-29T20:04:54.230Z,100.00
2022-11-29T20:07:20.659Z,100.00
2022-11-29T20:09:49.201Z,100.00
2022-11-29T20:12:15.661Z,100.00
2022-11-29T20:14:42.071Z,100.00
2022-11-29T20:17:08.493Z,100.00
2022-11-29T20:19:34.950Z,100.00
2022-11-29T20:22:04.003Z,100.00
2022-11-29T20:24:35.328Z,100.00
2022-11-29T20:27:05.548Z,100.00
2022-11-29T20:29:33.029Z,100.00
2022-11-29T20:31:59.475Z,100.00
2022-11-29T20:34:25.963Z,100.00
2022-11-29T20:37:10.709Z,100.00
2022-11-29T20:39:53.928Z,100.00
2022-11-29T20:42:32.479Z,100.00
2022-11-29T20:45:03.935Z,100.00
2022-11-29T20:47:40.830Z,100.00
2022-11-29T20:50:07.913Z,100.00
2022-11-29T20:52:46.744Z,100.00
2022-11-29T20:55:13.322Z,100.00
2022-11-29T20:57:39.711Z,100.00
2022-11-29T21:00:08.332Z,100.00
2022-11-29T21:02:34.777Z,100.00
2022-11-29T21:05:01.150Z,100.00
2022-11-29T21:07:27.614Z,100.00
2022-11-29T21:09:59.496Z,100.00
2022-11-29T21:12:28.379Z,100.00
2022-11-29T21:14:55.005Z,100.00
2022-11-29T21:17:22.462Z,100.00
2022-11-29T21:19:49.138Z,100.00
2022-11-29T21:22:52.701Z,100.00
2022-11-29T21:25:25.060Z,100.00
2022-11-29T21:27:52.575Z,100.00
2022-11-29T21:30:23.312Z,100.00
2022-11-29T21:32:50.214Z,100.00
2022-11-29T21:35:17.174Z,100.00
2022-11-29T21:37:44.214Z,100.00
2022-11-29T21:40:11.649Z,100.00
2022-11-29T21:42:38.016Z,100.00
2022-11-29T21:45:08.219Z,100.00
2022-11-29T21:47:39.829Z,100.00
2022-11-29T21:50:06.872Z,100.00
2022-11-29T21:52:33.293Z,100.00
2022-11-29T21:54:59.716Z,100.00
2022-11-29T21:57:26.088Z,100.00
2022-11-29T21:59:52.977Z,100.00
2022-11-29T22:02:19.513Z,100.00
2022-11-29T22:04:46.332Z,100.00
2022-11-29T22:07:13.956Z,100.00
2022-11-29T22:09:40.477Z,100.00
2022-11-29T22:12:32.034Z,100.00
2022-11-29T22:14:53.407Z,100.00
2022-11-29T22:17:19.838Z,100.00
2022-11-29T22:19:46.227Z,100.00
2022-11-29T22:22:13.204Z,100.00
2022-11-29T22:24:39.594Z,100.00
2022-11-29T22:27:06.022Z,100.00
2022-11-29T22:29:32.469Z,100.00
2022-11-29T22:31:59.487Z,100.00
2022-11-29T22:34:26.723Z,100.00
2022-11-29T22:36:53.217Z,100.00
2022-11-29T22:39:19.635Z,100.00
2022-11-29T22:41:52.287Z,100.00
2022-11-29T22:44:20.280Z,100.00
2022-11-29T22:46:46.732Z,100.00
2022-11-29T22:49:13.228Z,100.00
2022-11-29T22:51:39.967Z,100.00
2022-11-29T22:54:08.587Z,100.00
2022-11-29T22:56:39.823Z,100.00
2022-11-29T22:59:06.581Z,100.00
2022-11-29T23:01:34.876Z,100.00
2022-11-29T23:04:04.200Z,100.00
2022-11-29T23:06:33.477Z,100.00
2022-11-29T23:09:05.167Z,100.00
2022-11-29T23:11:32.153Z,100.00
2022-11-29T23:13:58.628Z,100.00
2022-11-29T23:16:27.127Z,100.00
2022-11-29T23:18:54.876Z,100.00
2022-11-29T23:21:23.503Z,100.00
2022-11-29T23:23:55.816Z,100.00
2022-11-29T23:26:28.963Z,100.00
2022-11-29T23:28:55.686Z,100.00
2022-11-29T23:31:23.371Z,100.00
2022-11-29T23:33:50.022Z,100.00
2022-11-29T23:36:17.034Z,100.00
2022-11-29T23:38:43.526Z,100.00
2022-11-29T23:41:11.495Z,100.00
2022-11-29T23:43:40.348Z,100.00
2022-11-29T23:46:16.233Z,100.00
2022-11-29T23:48:43.487Z,100.00
2022-11-29T23:51:10.282Z,100.00
2022-11-29T23:53:36.722Z,100.00
2022-11-29T23:56:06.201Z,100.00
2022-11-29T23:58:33.554Z,100.00
